sensor_id;sensor_type;location;lat;lon;timestamp;pressure;altitude;pressure_sealevel;temperature;humidity
55317;BME280;41178;48.956;8.130;2024-03-23T00:55:09;98960.13;;;14.81;42.59
55317;BME280;41178;48.956;8.130;2024-03-23T01:00:10;98982.91;;;14.85;42.65
55317;BME280;41178;48.956;8.130;2024-03-23T01:05:11;98959.94;;;15.06;42.59
55317;BME280;41178;48.956;8.130;2024-03-23T01:10:12;98902.53;;;18.92;37.96
55317;BME280;41178;48.956;8.130;2024-03-23T01:15:12;98955.84;;;18.00;38.51
55317;BME280;41178;48.956;8.130;2024-03-23T01:20:13;98963.69;;;16.96;40.24
55317;BME280;41178;48.956;8.130;2024-03-23T01:25:14;99003.03;;;17.43;39.03
55317;BME280;41178;48.956;8.130;2024-03-23T01:30:15;98909.16;;;15.91;41.85
55317;BME280;41178;48.956;8.130;2024-03-23T01:35:16;98954.13;;;16.59;40.46
55317;BME280;41178;48.956;8.130;2024-03-23T01:40:17;98937.78;;;17.78;38.93
55317;BME280;41178;48.956;8.130;2024-03-23T01:45:18;98952.59;;;16.47;40.76
55317;BME280;41178;48.956;8.130;2024-03-23T01:50:19;98960.84;;;17.86;39.07
55317;BME280;41178;48.956;8.130;2024-03-23T01:55:20;98933.56;;;17.65;39.26
55317;BME280;41178;48.956;8.130;2024-03-23T02:00:21;98980.22;;;16.37;40.68
55317;BME280;41178;48.956;8.130;2024-03-23T02:05:23;98954.19;;;17.94;38.74
55317;BME280;41178;48.956;8.130;2024-03-23T02:10:24;98956.84;;;18.16;38.39
55317;BME280;41178;48.956;8.130;2024-03-23T02:15:25;98982.28;;;16.47;39.79
55317;BME280;41178;48.956;8.130;2024-03-23T02:20:25;98988.97;;;16.15;40.92
55317;BME280;41178;48.956;8.130;2024-03-23T02:25:26;98893.13;;;15.84;41.85
55317;BME280;41178;48.956;8.130;2024-03-23T02:30:27;98908.38;;;16.53;40.78
55317;BME280;41178;48.956;8.130;2024-03-23T02:35:27;98904.47;;;16.60;40.74
55317;BME280;41178;48.956;8.130;2024-03-23T02:40:28;98903.94;;;16.01;41.78
55317;BME280;41178;48.956;8.130;2024-03-23T02:45:29;98928.25;;;14.66;43.68
55317;BME280;41178;48.956;8.130;2024-03-23T02:50:30;98889.44;;;14.97;43.62
55317;BME280;41178;48.956;8.130;2024-03-23T02:55:30;98857.38;;;15.77;42.31
55317;BME280;41178;48.956;8.130;2024-03-23T03:00:31;98895.56;;;15.57;42.35
55317;BME280;41178;48.956;8.130;2024-03-23T03:05:32;98906.75;;;16.35;41.19
55317;BME280;41178;48.956;8.130;2024-03-23T03:10:32;98834.28;;;15.81;42.49
55317;BME280;41178;48.956;8.130;2024-03-23T03:15:35;98877.00;;;14.96;43.27
55317;BME280;41178;48.956;8.130;2024-03-23T03:20:42;98843.53;;;16.02;42.34
55317;BME280;41178;48.956;8.130;2024-03-23T03:25:42;98929.69;;;15.39;42.75
55317;BME280;41178;48.956;8.130;2024-03-23T03:30:43;98920.25;;;13.56;45.31
55317;BME280;41178;48.956;8.130;2024-03-23T03:35:44;98855.34;;;14.67;44.09
55317;BME280;41178;48.956;8.130;2024-03-23T03:40:45;98855.22;;;15.50;42.83
55317;BME280;41178;48.956;8.130;2024-03-23T03:45:57;98857.44;;;16.78;41.26
55317;BME280;41178;48.956;8.130;2024-03-23T03:50:58;98881.47;;;15.66;42.19
55317;BME280;41178;48.956;8.130;2024-03-23T03:56:02;98899.03;;;15.05;42.99
55317;BME280;41178;48.956;8.130;2024-03-23T04:01:02;98932.59;;;15.61;41.64
55317;BME280;41178;48.956;8.130;2024-03-23T04:06:03;98915.19;;;16.10;41.58
55317;BME280;41178;48.956;8.130;2024-03-23T04:11:04;98912.25;;;15.82;42.27
55317;BME280;41178;48.956;8.130;2024-03-23T04:16:05;98906.53;;;14.25;44.28
55317;BME280;41178;48.956;8.130;2024-03-23T04:21:05;98922.66;;;13.95;44.37
55317;BME280;41178;48.956;8.130;2024-03-23T04:26:07;98904.91;;;14.24;44.17
55317;BME280;41178;48.956;8.130;2024-03-23T04:31:08;98906.91;;;15.59;42.54
55317;BME280;41178;48.956;8.130;2024-03-23T04:36:09;98961.41;;;14.24;43.74
55317;BME280;41178;48.956;8.130;2024-03-23T04:41:10;98870.75;;;14.36;44.43
55317;BME280;41178;48.956;8.130;2024-03-23T04:46:11;98971.19;;;13.26;44.57
55317;BME280;41178;48.956;8.130;2024-03-23T04:51:20;98936.94;;;15.62;40.95
55317;BME280;41178;48.956;8.130;2024-03-23T04:56:21;98875.34;;;14.06;42.93
55317;BME280;41178;48.956;8.130;2024-03-23T05:01:22;98943.00;;;16.56;38.82
55317;BME280;41178;48.956;8.130;2024-03-23T05:06:23;98951.69;;;14.23;41.12
55317;BME280;41178;48.956;8.130;2024-03-23T05:11:24;99037.44;;;12.88;42.13
55317;BME280;41178;48.956;8.130;2024-03-23T05:16:25;99023.59;;;14.76;39.88
55317;BME280;41178;48.956;8.130;2024-03-23T05:21:27;98999.50;;;14.39;40.88
55317;BME280;41178;48.956;8.130;2024-03-23T05:26:30;99039.59;;;13.74;41.62
55317;BME280;41178;48.956;8.130;2024-03-23T05:31:31;99125.59;;;13.23;41.42
55317;BME280;41178;48.956;8.130;2024-03-23T05:36:32;99111.38;;;12.52;42.79
55317;BME280;41178;48.956;8.130;2024-03-23T05:41:33;99071.09;;;13.85;41.46
55317;BME280;41178;48.956;8.130;2024-03-23T05:46:36;99082.41;;;13.25;42.43
55317;BME280;41178;48.956;8.130;2024-03-23T05:51:37;98999.25;;;14.41;41.44
55317;BME280;41178;48.956;8.130;2024-03-23T05:56:37;99155.53;;;12.43;42.38
55317;BME280;41178;48.956;8.130;2024-03-23T06:01:38;99134.22;;;13.00;42.23
55317;BME280;41178;48.956;8.130;2024-03-23T06:06:39;99074.28;;;13.06;42.43
55317;BME280;41178;48.956;8.130;2024-03-23T06:11:40;99040.03;;;11.53;45.01
55317;BME280;41178;48.956;8.130;2024-03-23T06:16:41;99073.66;;;12.34;43.57
55317;BME280;41178;48.956;8.130;2024-03-23T06:21:45;99043.91;;;13.56;41.72
55317;BME280;41178;48.956;8.130;2024-03-23T06:26:46;99197.53;;;11.84;43.79
55317;BME280;41178;48.956;8.130;2024-03-23T06:31:53;99173.78;;;12.08;43.27
55317;BME280;41178;48.956;8.130;2024-03-23T06:36:54;99229.66;;;11.44;43.67
55317;BME280;41178;48.956;8.130;2024-03-23T06:41:55;99203.75;;;11.71;43.96
55317;BME280;41178;48.956;8.130;2024-03-23T06:46:57;99157.00;;;12.91;42.31
55317;BME280;41178;48.956;8.130;2024-03-23T06:51:58;99099.75;;;12.59;43.33
55317;BME280;41178;48.956;8.130;2024-03-23T06:56:58;99226.19;;;12.24;42.97
55317;BME280;41178;48.956;8.130;2024-03-23T07:01:59;99169.06;;;12.03;43.96
55317;BME280;41178;48.956;8.130;2024-03-23T07:07:00;99158.94;;;12.05;44.11
55317;BME280;41178;48.956;8.130;2024-03-23T07:12:02;99214.13;;;12.60;43.14
55317;BME280;41178;48.956;8.130;2024-03-23T07:17:02;99289.94;;;11.95;42.84
55317;BME280;41178;48.956;8.130;2024-03-23T07:22:03;99282.72;;;12.02;43.28
55317;BME280;41178;48.956;8.130;2024-03-23T07:27:04;99209.44;;;13.39;42.17
55317;BME280;41178;48.956;8.130;2024-03-23T07:32:05;99283.94;;;12.53;41.93
55317;BME280;41178;48.956;8.130;2024-03-23T07:37:05;99395.78;;;14.10;39.35
55317;BME280;41178;48.956;8.130;2024-03-23T07:42:06;99344.50;;;13.98;39.47
55317;BME280;41178;48.956;8.130;2024-03-23T07:47:07;99335.88;;;12.85;40.79
55317;BME280;41178;48.956;8.130;2024-03-23T07:52:07;99496.09;;;13.65;38.71
55317;BME280;41178;48.956;8.130;2024-03-23T07:57:08;99540.75;;;11.97;40.02
55317;BME280;41178;48.956;8.130;2024-03-23T08:02:09;99433.81;;;12.49;39.73
55317;BME280;41178;48.956;8.130;2024-03-23T08:07:11;99477.97;;;13.27;38.41
55317;BME280;41178;48.956;8.130;2024-03-23T08:12:11;99522.53;;;11.79;39.13
55317;BME280;41178;48.956;8.130;2024-03-23T08:17:12;99581.06;;;12.66;37.56
55317;BME280;41178;48.956;8.130;2024-03-23T08:22:13;99569.09;;;10.94;38.51
55317;BME280;41178;48.956;8.130;2024-03-23T08:27:13;99566.78;;;12.72;36.70
55317;BME280;41178;48.956;8.130;2024-03-23T08:32:14;99457.00;;;14.14;36.42
55317;BME280;41178;48.956;8.130;2024-03-23T08:37:15;99568.28;;;13.61;35.71
55317;BME280;41178;48.956;8.130;2024-03-23T08:42:15;99559.81;;;13.58;35.53
55317;BME280;41178;48.956;8.130;2024-03-23T08:47:16;99593.13;;;13.43;35.24
55317;BME280;41178;48.956;8.130;2024-03-23T08:52:17;99558.91;;;14.74;35.25
55317;BME280;41178;48.956;8.130;2024-03-23T08:57:17;99620.38;;;14.46;34.36
55317;BME280;41178;48.956;8.130;2024-03-23T09:02:18;99643.84;;;14.32;34.15
55317;BME280;41178;48.956;8.130;2024-03-23T09:07:19;99529.63;;;13.09;35.82
55317;BME280;41178;48.956;8.130;2024-03-23T09:12:20;99582.06;;;13.92;34.44
55317;BME280;41178;48.956;8.130;2024-03-23T09:17:20;99552.13;;;13.68;35.07
55317;BME280;41178;48.956;8.130;2024-03-23T09:22:21;99516.72;;;15.00;33.35
55317;BME280;41178;48.956;8.130;2024-03-23T09:27:22;99524.66;;;13.46;34.72
55317;BME280;41178;48.956;8.130;2024-03-23T09:32:22;99568.41;;;11.13;38.99
55317;BME280;41178;48.956;8.130;2024-03-23T09:37:23;99489.47;;;10.16;43.27
55317;BME280;41178;48.956;8.130;2024-03-23T09:42:24;99445.66;;;10.39;43.74
55317;BME280;41178;48.956;8.130;2024-03-23T09:47:25;99636.66;;;9.32;43.79
55317;BME280;41178;48.956;8.130;2024-03-23T09:52:25;99519.78;;;11.10;43.21
55317;BME280;41178;48.956;8.130;2024-03-23T09:57:26;99501.44;;;12.31;41.83
55317;BME280;41178;48.956;8.130;2024-03-23T10:02:27;99557.47;;;12.48;40.78
55317;BME280;41178;48.956;8.130;2024-03-23T10:07:29;99432.88;;;13.49;40.68
55317;BME280;41178;48.956;8.130;2024-03-23T10:12:30;99418.31;;;11.63;41.91
55317;BME280;41178;48.956;8.130;2024-03-23T10:17:30;99503.44;;;11.61;40.34
55317;BME280;41178;48.956;8.130;2024-03-23T10:22:37;99516.19;;;11.94;39.68
55317;BME280;41178;48.956;8.130;2024-03-23T10:27:38;99467.66;;;13.04;40.38
55317;BME280;41178;48.956;8.130;2024-03-23T10:32:40;99490.81;;;13.90;38.77
55317;BME280;41178;48.956;8.130;2024-03-23T10:37:42;99555.66;;;13.62;39.72
55317;BME280;41178;48.956;8.130;2024-03-23T10:42:44;99566.00;;;12.91;39.75
55317;BME280;41178;48.956;8.130;2024-03-23T10:47:44;99534.25;;;14.46;37.97
55317;BME280;41178;48.956;8.130;2024-03-23T10:52:48;99438.25;;;14.33;39.36
55317;BME280;41178;48.956;8.130;2024-03-23T10:57:52;99460.91;;;15.26;38.01
55317;BME280;41178;48.956;8.130;2024-03-23T11:06:51;99524.06;;;12.84;40.36
55317;BME280;41178;48.956;8.130;2024-03-23T11:11:53;99392.94;;;12.74;41.47
55317;BME280;41178;48.956;8.130;2024-03-23T11:17:09;99494.72;;;12.96;41.22
55317;BME280;41178;48.956;8.130;2024-03-23T11:22:10;99433.97;;;13.28;39.41
55317;BME280;41178;48.956;8.130;2024-03-23T11:27:17;99488.50;;;12.48;38.66
55317;BME280;41178;48.956;8.130;2024-03-23T11:32:18;99486.16;;;11.00;39.59
55317;BME280;41178;48.956;8.130;2024-03-23T11:37:18;99424.53;;;12.52;38.28
55317;BME280;41178;48.956;8.130;2024-03-23T11:42:19;99489.06;;;11.40;38.10
55317;BME280;41178;48.956;8.130;2024-03-23T11:47:21;99374.69;;;13.09;37.78
55317;BME280;41178;48.956;8.130;2024-03-23T11:52:22;99393.75;;;12.74;37.51
55317;BME280;41178;48.956;8.130;2024-03-23T11:57:23;99543.00;;;11.94;36.23
55317;BME280;41178;48.956;8.130;2024-03-23T12:02:23;99494.03;;;12.27;36.56
55317;BME280;41178;48.956;8.130;2024-03-23T12:07:24;99420.19;;;12.71;37.58
55317;BME280;41178;48.956;8.130;2024-03-23T12:12:25;99444.16;;;12.66;33.90
55317;BME280;41178;48.956;8.130;2024-03-23T12:17:25;99437.38;;;13.62;32.36
55317;BME280;41178;48.956;8.130;2024-03-23T12:22:26;99533.56;;;13.53;32.80
55317;BME280;41178;48.956;8.130;2024-03-23T12:27:27;99532.94;;;12.09;33.01
55317;BME280;41178;48.956;8.130;2024-03-23T12:32:28;99510.41;;;12.65;33.51
55317;BME280;41178;48.956;8.130;2024-03-23T12:37:29;99571.41;;;10.09;39.81
55317;BME280;41178;48.956;8.130;2024-03-23T12:42:30;99545.88;;;9.76;41.94
55317;BME280;41178;48.956;8.130;2024-03-23T12:47:30;99391.19;;;9.00;43.17
55317;BME280;41178;48.956;8.130;2024-03-23T12:52:34;99522.41;;;9.42;41.93
55317;BME280;41178;48.956;8.130;2024-03-23T12:57:35;99337.00;;;11.36;41.32
55317;BME280;41178;48.956;8.130;2024-03-23T13:02:37;99457.59;;;10.86;40.01
55317;BME280;41178;48.956;8.130;2024-03-23T13:07:39;99491.25;;;9.94;40.19
55317;BME280;41178;48.956;8.130;2024-03-23T13:12:39;99453.66;;;10.60;40.03
55317;BME280;41178;48.956;8.130;2024-03-23T13:17:40;99548.19;;;8.97;41.02
55317;BME280;41178;48.956;8.130;2024-03-23T13:22:41;99365.78;;;9.05;44.21
55317;BME280;41178;48.956;8.130;2024-03-23T13:27:42;99354.53;;;11.45;42.74
55317;BME280;41178;48.956;8.130;2024-03-23T13:32:42;99335.53;;;12.15;41.52
55317;BME280;41178;48.956;8.130;2024-03-23T13:37:43;99357.72;;;11.69;41.18
55317;BME280;41178;48.956;8.130;2024-03-23T13:42:44;99338.78;;;11.84;39.24
55317;BME280;41178;48.956;8.130;2024-03-23T13:47:44;99410.44;;;12.36;39.59
55317;BME280;41178;48.956;8.130;2024-03-23T13:52:45;99507.22;;;11.10;39.26
55317;BME280;41178;48.956;8.130;2024-03-23T13:57:46;99369.41;;;12.56;38.79
55317;BME280;41178;48.956;8.130;2024-03-23T14:02:46;99483.47;;;8.95;43.74
55317;BME280;41178;48.956;8.130;2024-03-23T14:07:47;99541.28;;;7.94;43.61
55317;BME280;41178;48.956;8.130;2024-03-23T14:12:48;99315.53;;;9.23;44.01
55317;BME280;41178;48.956;8.130;2024-03-23T14:17:49;99220.69;;;9.70;41.38
55317;BME280;41178;48.956;8.130;2024-03-23T14:22:50;99266.91;;;10.49;39.23
55317;BME280;41178;48.956;8.130;2024-03-23T14:27:50;99442.91;;;10.32;38.74
55317;BME280;41178;48.956;8.130;2024-03-23T14:32:51;99360.56;;;11.05;37.83
55317;BME280;41178;48.956;8.130;2024-03-23T14:37:52;99337.91;;;11.15;38.58
55317;BME280;41178;48.956;8.130;2024-03-23T14:42:54;99382.25;;;11.72;39.06
55317;BME280;41178;48.956;8.130;2024-03-23T14:47:55;99482.47;;;10.80;40.13
55317;BME280;41178;48.956;8.130;2024-03-23T14:52:56;99322.72;;;11.84;39.96
55317;BME280;41178;48.956;8.130;2024-03-23T14:57:56;99325.63;;;12.29;39.27
55317;BME280;41178;48.956;8.130;2024-03-23T15:02:57;99315.72;;;12.29;38.85
55317;BME280;41178;48.956;8.130;2024-03-23T15:07:58;99339.31;;;13.64;36.93
55317;BME280;41178;48.956;8.130;2024-03-23T15:12:59;99376.69;;;13.21;37.71
55317;BME280;41178;48.956;8.130;2024-03-23T15:18:00;99390.81;;;13.03;38.05
55317;BME280;41178;48.956;8.130;2024-03-23T15:23:02;99343.84;;;14.02;37.25
55317;BME280;41178;48.956;8.130;2024-03-23T15:28:02;99366.28;;;11.44;40.32
55317;BME280;41178;48.956;8.130;2024-03-23T15:33:03;99417.66;;;11.54;39.94
55317;BME280;41178;48.956;8.130;2024-03-23T15:38:04;99321.09;;;12.49;39.34
55317;BME280;41178;48.956;8.130;2024-03-23T15:43:05;99294.75;;;13.50;38.82
55317;BME280;41178;48.956;8.130;2024-03-23T15:48:06;99415.34;;;12.06;37.25
55317;BME280;41178;48.956;8.130;2024-03-23T15:53:07;99421.69;;;11.85;37.32
55317;BME280;41178;48.956;8.130;2024-03-23T15:58:07;99370.38;;;11.95;38.79
55317;BME280;41178;48.956;8.130;2024-03-23T16:03:08;99296.84;;;10.03;41.48
55317;BME280;41178;48.956;8.130;2024-03-23T16:08:09;99438.56;;;9.43;43.08
55317;BME280;41178;48.956;8.130;2024-03-23T16:13:09;99417.78;;;9.24;43.38
55317;BME280;41178;48.956;8.130;2024-03-23T16:18:10;99280.38;;;8.75;45.68
55317;BME280;41178;48.956;8.130;2024-03-23T16:23:11;99156.94;;;9.89;44.12
55317;BME280;41178;48.956;8.130;2024-03-23T16:28:12;99200.97;;;11.24;42.28
55317;BME280;41178;48.956;8.130;2024-03-23T16:33:12;99275.66;;;12.41;40.54
55317;BME280;41178;48.956;8.130;2024-03-23T16:38:13;99309.34;;;11.29;41.79
55317;BME280;41178;48.956;8.130;2024-03-23T16:43:13;99329.41;;;10.13;43.09
55317;BME280;41178;48.956;8.130;2024-03-23T16:48:14;99379.78;;;9.21;44.03
55317;BME280;41178;48.956;8.130;2024-03-23T16:53:15;99327.13;;;9.15;44.41
55317;BME280;41178;48.956;8.130;2024-03-23T16:58:16;99386.16;;;10.86;41.86
55317;BME280;41178;48.956;8.130;2024-03-23T17:03:19;99420.56;;;10.18;42.94
55317;BME280;41178;48.956;8.130;2024-03-23T17:08:22;99389.25;;;7.95;46.50
55317;BME280;41178;48.956;8.130;2024-03-23T17:13:23;99299.69;;;9.43;44.45
55317;BME280;41178;48.956;8.130;2024-03-23T17:18:24;99326.97;;;9.53;45.67
55317;BME280;41178;48.956;8.130;2024-03-23T17:23:26;99196.59;;;10.55;44.13
55317;BME280;41178;48.956;8.130;2024-03-23T17:28:27;99370.97;;;9.57;44.11
55317;BME280;41178;48.956;8.130;2024-03-23T17:33:27;99340.47;;;10.31;43.77
55317;BME280;41178;48.956;8.130;2024-03-23T17:38:28;99212.84;;;10.95;42.83
55317;BME280;41178;48.956;8.130;2024-03-23T17:43:29;99328.09;;;11.35;41.96
55317;BME280;41178;48.956;8.130;2024-03-23T17:48:31;99492.22;;;8.42;44.93
55317;BME280;41178;48.956;8.130;2024-03-23T17:53:39;99419.28;;;7.41;47.86
55317;BME280;41178;48.956;8.130;2024-03-23T17:58:39;99253.47;;;7.01;50.03
55317;BME280;41178;48.956;8.130;2024-03-23T18:03:40;99286.84;;;7.43;48.95
55317;BME280;41178;48.956;8.130;2024-03-23T18:08:41;99217.56;;;7.28;49.65
55317;BME280;41178;48.956;8.130;2024-03-23T18:13:42;99317.31;;;8.33;47.10
55317;BME280;41178;48.956;8.130;2024-03-23T18:18:45;99286.66;;;8.14;47.60
55317;BME280;41178;48.956;8.130;2024-03-23T18:23:46;99331.06;;;9.19;45.31
55317;BME280;41178;48.956;8.130;2024-03-23T18:28:51;99275.78;;;8.98;44.90
55317;BME280;41178;48.956;8.130;2024-03-23T18:33:54;99479.22;;;7.77;45.42
55317;BME280;41178;48.956;8.130;2024-03-23T18:38:57;99275.78;;;9.93;43.56
55317;BME280;41178;48.956;8.130;2024-03-23T18:43:58;99306.16;;;10.13;42.88
55317;BME280;41178;48.956;8.130;2024-03-23T18:48:59;99317.84;;;9.11;43.98
55317;BME280;41178;48.956;8.130;2024-03-23T18:54:01;99346.47;;;10.12;42.33
55317;BME280;41178;48.956;8.130;2024-03-23T18:59:02;99321.94;;;10.58;41.64
55317;BME280;41178;48.956;8.130;2024-03-23T19:04:03;99443.72;;;9.59;42.78
55317;BME280;41178;48.956;8.130;2024-03-23T19:09:04;99293.97;;;10.32;42.45
55317;BME280;41178;48.956;8.130;2024-03-23T19:14:05;99419.03;;;9.87;41.97
55317;BME280;41178;48.956;8.130;2024-03-23T19:19:05;99407.94;;;8.33;44.62
55317;BME280;41178;48.956;8.130;2024-03-23T19:24:06;99290.91;;;9.28;43.68
55317;BME280;41178;48.956;8.130;2024-03-23T19:29:07;99333.53;;;8.08;45.91
55317;BME280;41178;48.956;8.130;2024-03-23T19:34:08;99262.09;;;8.87;44.59
55317;BME280;41178;48.956;8.130;2024-03-23T19:39:08;99282.31;;;9.69;42.68
55317;BME280;41178;48.956;8.130;2024-03-23T19:44:09;99363.53;;;9.38;42.84
55317;BME280;41178;48.956;8.130;2024-03-23T19:49:10;99421.94;;;8.73;43.62
55317;BME280;41178;48.956;8.130;2024-03-23T19:54:10;99239.53;;;9.26;44.22
55317;BME280;41178;48.956;8.130;2024-03-23T19:59:11;99276.38;;;9.30;43.68
55317;BME280;41178;48.956;8.130;2024-03-23T20:04:12;99364.41;;;9.24;43.16
55317;BME280;41178;48.956;8.130;2024-03-23T20:09:13;99422.41;;;7.53;44.71
55317;BME280;41178;48.956;8.130;2024-03-23T20:14:15;99329.13;;;9.28;43.18
55317;BME280;41178;48.956;8.130;2024-03-23T20:19:16;99253.47;;;10.70;41.17
55317;BME280;41178;48.956;8.130;2024-03-23T20:24:16;99363.50;;;9.16;42.96
55317;BME280;41178;48.956;8.130;2024-03-23T20:29:17;99413.72;;;9.43;42.00
55317;BME280;41178;48.956;8.130;2024-03-23T20:34:18;99463.06;;;9.91;40.81
55317;BME280;41178;48.956;8.130;2024-03-23T20:39:21;99315.63;;;9.73;42.38
55317;BME280;41178;48.956;8.130;2024-03-23T20:44:22;99301.97;;;11.37;40.52
55317;BME280;41178;48.956;8.130;2024-03-23T20:49:22;99377.75;;;11.73;39.21
55317;BME280;41178;48.956;8.130;2024-03-23T20:54:23;99450.50;;;11.63;39.21
55317;BME280;41178;48.956;8.130;2024-03-23T20:59:23;99537.19;;;8.45;42.07
55317;BME280;41178;48.956;8.130;2024-03-23T21:04:25;99305.13;;;8.83;43.97
55317;BME280;41178;48.956;8.130;2024-03-23T21:09:26;99309.94;;;8.88;43.89
55317;BME280;41178;48.956;8.130;2024-03-23T21:14:26;99271.28;;;9.78;43.05
55317;BME280;41178;48.956;8.130;2024-03-23T21:19:27;99319.88;;;9.46;43.33
55317;BME280;41178;48.956;8.130;2024-03-23T21:24:28;99297.50;;;9.47;43.41
55317;BME280;41178;48.956;8.130;2024-03-23T21:29:29;99381.75;;;8.75;44.19
55317;BME280;41178;48.956;8.130;2024-03-23T21:34:30;99336.56;;;11.32;40.34
55317;BME280;41178;48.956;8.130;2024-03-23T21:39:30;99343.59;;;10.98;40.79
55317;BME280;41178;48.956;8.130;2024-03-23T21:44:31;99355.53;;;10.39;41.72
55317;BME280;41178;48.956;8.130;2024-03-23T21:49:32;99283.47;;;11.56;40.67
55317;BME280;41178;48.956;8.130;2024-03-23T21:54:32;99327.16;;;10.66;41.50
55317;BME280;41178;48.956;8.130;2024-03-23T21:59:33;99401.22;;;9.94;42.41
55317;BME280;41178;48.956;8.130;2024-03-23T22:04:34;99373.56;;;8.76;44.75
55317;BME280;41178;48.956;8.130;2024-03-23T22:09:35;99234.06;;;8.08;46.38
55317;BME280;41178;48.956;8.130;2024-03-23T22:14:35;99272.25;;;9.13;44.43
55317;BME280;41178;48.956;8.130;2024-03-23T22:19:36;99383.44;;;7.91;45.46
55317;BME280;41178;48.956;8.130;2024-03-23T22:24:36;99257.59;;;10.10;42.59
55317;BME280;41178;48.956;8.130;2024-03-23T22:29:37;99318.06;;;9.68;42.62
55317;BME280;41178;48.956;8.130;2024-03-23T22:34:38;99228.50;;;9.50;43.90
55317;BME280;41178;48.956;8.130;2024-03-23T22:39:41;99173.41;;;11.71;41.12
55317;BME280;41178;48.956;8.130;2024-03-23T22:44:41;99268.53;;;9.29;44.09
55317;BME280;41178;48.956;8.130;2024-03-23T22:49:42;99202.84;;;11.31;41.82
55317;BME280;41178;48.956;8.130;2024-03-23T22:54:43;99273.00;;;9.43;44.49
55317;BME280;41178;48.956;8.130;2024-03-23T22:59:44;99300.22;;;8.42;46.07
55317;BME280;41178;48.956;8.130;2024-03-23T23:04:44;99286.44;;;8.54;46.29
55317;BME280;41178;48.956;8.130;2024-03-23T23:09:45;99143.78;;;9.66;45.00
55317;BME280;41178;48.956;8.130;2024-03-23T23:14:46;99172.09;;;8.95;46.22
55317;BME280;41178;48.956;8.130;2024-03-23T23:19:46;99229.06;;;8.88;45.72
55317;BME280;41178;48.956;8.130;2024-03-23T23:24:47;99099.38;;;9.93;44.35
55317;BME280;41178;48.956;8.130;2024-03-23T23:29:48;99233.59;;;9.09;45.18
55317;BME280;41178;48.956;8.130;2024-03-23T23:34:48;99078.59;;;9.88;45.30
55317;BME280;41178;48.956;8.130;2024-03-23T23:39:49;99113.31;;;9.88;44.68
55317;BME280;41178;48.956;8.130;2024-03-23T23:44:50;99213.88;;;9.46;44.70
55317;BME280;41178;48.956;8.130;2024-03-23T23:49:51;99164.91;;;10.17;44.24
55317;BME280;41178;48.956;8.130;2024-03-23T23:54:52;99235.69;;;10.21;43.63
55317;BME280;41178;48.956;8.130;2024-03-23T23:59:52;99236.78;;;10.05;44.20
